sensor_id;sensor_type;location;lat;lon;timestamp;temperature;humidity
54409;DHT22;40315;48.620;9.828;2022-10-16T00:01:30;14.20;99.90
54409;DHT22;40315;48.620;9.828;2022-10-16T00:03:59;14.20;99.90
54409;DHT22;40315;48.620;9.828;2022-10-16T00:06:27;14.20;99.90
54409;DHT22;40315;48.620;9.828;2022-10-16T00:08:54;14.20;99.90
54409;DHT22;40315;48.620;9.828;2022-10-16T00:11:23;14.20;99.90
54409;DHT22;40315;48.620;9.828;2022-10-16T00:13:56;14.30;99.90
54409;DHT22;40315;48.620;9.828;2022-10-16T00:16:23;14.20;99.90
54409;DHT22;40315;48.620;9.828;2022-10-16T00:18:52;14.20;99.90
54409;DHT22;40315;48.620;9.828;2022-10-16T00:21:20;14.20;99.90
54409;DHT22;40315;48.620;9.828;2022-10-16T00:23:50;14.20;99.90
54409;DHT22;40315;48.620;9.828;2022-10-16T00:26:20;14.10;99.90
54409;DHT22;40315;48.620;9.828;2022-10-16T00:28:50;14.10;99.90
54409;DHT22;40315;48.620;9.828;2022-10-16T00:31:22;14.10;99.90
54409;DHT22;40315;48.620;9.828;2022-10-16T00:33:52;14.10;99.90
54409;DHT22;40315;48.620;9.828;2022-10-16T00:36:22;14.00;99.90
54409;DHT22;40315;48.620;9.828;2022-10-16T00:38:52;14.00;99.90
54409;DHT22;40315;48.620;9.828;2022-10-16T00:41:21;14.00;99.90
54409;DHT22;40315;48.620;9.828;2022-10-16T00:43:52;13.90;99.90
54409;DHT22;40315;48.620;9.828;2022-10-16T00:46:21;13.90;99.90
54409;DHT22;40315;48.620;9.828;2022-10-16T00:48:56;13.90;99.90
54409;DHT22;40315;48.620;9.828;2022-10-16T00:51:30;13.90;99.90
54409;DHT22;40315;48.620;9.828;2022-10-16T00:54:00;13.80;99.90
54409;DHT22;40315;48.620;9.828;2022-10-16T00:56:27;13.90;99.90
54409;DHT22;40315;48.620;9.828;2022-10-16T00:58:54;13.90;99.90
54409;DHT22;40315;48.620;9.828;2022-10-16T01:04:07;13.80;99.90
54409;DHT22;40315;48.620;9.828;2022-10-16T01:06:38;13.80;99.90
54409;DHT22;40315;48.620;9.828;2022-10-16T01:09:13;13.80;99.90
54409;DHT22;40315;48.620;9.828;2022-10-16T01:11:48;13.80;99.90
54409;DHT22;40315;48.620;9.828;2022-10-16T01:14:22;13.80;99.90
54409;DHT22;40315;48.620;9.828;2022-10-16T01:16:55;13.80;99.90
54409;DHT22;40315;48.620;9.828;2022-10-16T01:19:41;13.90;99.90
54409;DHT22;40315;48.620;9.828;2022-10-16T01:22:11;13.90;99.90
54409;DHT22;40315;48.620;9.828;2022-10-16T01:24:40;13.90;99.90
54409;DHT22;40315;48.620;9.828;2022-10-16T01:27:13;13.80;99.90
54409;DHT22;40315;48.620;9.828;2022-10-16T01:29:48;13.80;99.90
54409;DHT22;40315;48.620;9.828;2022-10-16T01:32:26;13.70;99.90
54409;DHT22;40315;48.620;9.828;2022-10-16T01:34:59;13.70;99.90
54409;DHT22;40315;48.620;9.828;2022-10-16T01:37:32;13.70;99.90
54409;DHT22;40315;48.620;9.828;2022-10-16T01:40:07;13.60;99.90
54409;DHT22;40315;48.620;9.828;2022-10-16T01:45:59;13.70;99.90
54409;DHT22;40315;48.620;9.828;2022-10-16T01:48:27;13.70;99.90
54409;DHT22;40315;48.620;9.828;2022-10-16T01:51:00;13.70;99.90
54409;DHT22;40315;48.620;9.828;2022-10-16T01:53:29;13.70;99.90
54409;DHT22;40315;48.620;9.828;2022-10-16T01:55:58;13.60;99.90
54409;DHT22;40315;48.620;9.828;2022-10-16T01:58:27;13.60;99.90
54409;DHT22;40315;48.620;9.828;2022-10-16T02:00:56;13.60;99.90
54409;DHT22;40315;48.620;9.828;2022-10-16T02:05:54;13.60;99.90
54409;DHT22;40315;48.620;9.828;2022-10-16T02:08:23;13.60;99.90
54409;DHT22;40315;48.620;9.828;2022-10-16T02:10:51;13.50;99.90
54409;DHT22;40315;48.620;9.828;2022-10-16T02:13:22;13.50;99.90
54409;DHT22;40315;48.620;9.828;2022-10-16T02:15:50;13.60;99.90
54409;DHT22;40315;48.620;9.828;2022-10-16T02:18:20;13.60;99.90
54409;DHT22;40315;48.620;9.828;2022-10-16T02:20:54;13.60;99.90
54409;DHT22;40315;48.620;9.828;2022-10-16T02:23:35;13.60;99.90
54409;DHT22;40315;48.620;9.828;2022-10-16T02:26:07;13.60;99.90
54409;DHT22;40315;48.620;9.828;2022-10-16T02:28:39;13.50;99.90
54409;DHT22;40315;48.620;9.828;2022-10-16T02:31:10;13.50;99.90
54409;DHT22;40315;48.620;9.828;2022-10-16T02:33:40;13.60;99.90
54409;DHT22;40315;48.620;9.828;2022-10-16T02:36:09;13.50;99.90
54409;DHT22;40315;48.620;9.828;2022-10-16T02:38:36;13.50;99.90
54409;DHT22;40315;48.620;9.828;2022-10-16T02:41:04;13.50;99.90
54409;DHT22;40315;48.620;9.828;2022-10-16T02:43:31;13.50;99.90
54409;DHT22;40315;48.620;9.828;2022-10-16T02:45:59;13.60;99.90
54409;DHT22;40315;48.620;9.828;2022-10-16T02:48:26;13.60;99.90
54409;DHT22;40315;48.620;9.828;2022-10-16T02:50:53;13.60;99.90
54409;DHT22;40315;48.620;9.828;2022-10-16T02:53:21;13.60;99.90
54409;DHT22;40315;48.620;9.828;2022-10-16T02:55:48;15.10;99.90
54409;DHT22;40315;48.620;9.828;2022-10-16T02:58:17;13.70;99.90
54409;DHT22;40315;48.620;9.828;2022-10-16T03:00:44;13.70;99.90
54409;DHT22;40315;48.620;9.828;2022-10-16T03:03:11;13.60;99.90
54409;DHT22;40315;48.620;9.828;2022-10-16T03:05:38;13.60;99.90
54409;DHT22;40315;48.620;9.828;2022-10-16T03:08:05;13.60;99.90
54409;DHT22;40315;48.620;9.828;2022-10-16T03:13:01;13.60;99.90
54409;DHT22;40315;48.620;9.828;2022-10-16T03:15:28;13.60;99.90
54409;DHT22;40315;48.620;9.828;2022-10-16T03:17:57;13.50;99.90
54409;DHT22;40315;48.620;9.828;2022-10-16T03:20:27;13.60;99.90
54409;DHT22;40315;48.620;9.828;2022-10-16T03:22:54;14.60;99.90
54409;DHT22;40315;48.620;9.828;2022-10-16T03:25:21;13.60;99.90
54409;DHT22;40315;48.620;9.828;2022-10-16T03:27:50;13.50;99.90
54409;DHT22;40315;48.620;9.828;2022-10-16T03:30:17;13.50;99.90
54409;DHT22;40315;48.620;9.828;2022-10-16T03:32:44;13.60;99.90
54409;DHT22;40315;48.620;9.828;2022-10-16T03:35:11;13.60;99.90
54409;DHT22;40315;48.620;9.828;2022-10-16T03:37:38;13.60;99.90
54409;DHT22;40315;48.620;9.828;2022-10-16T03:40:06;13.60;99.90
54409;DHT22;40315;48.620;9.828;2022-10-16T03:42:33;13.60;99.90
54409;DHT22;40315;48.620;9.828;2022-10-16T03:47:31;13.60;99.90
54409;DHT22;40315;48.620;9.828;2022-10-16T03:49:59;13.60;99.90
54409;DHT22;40315;48.620;9.828;2022-10-16T03:52:28;13.60;99.90
54409;DHT22;40315;48.620;9.828;2022-10-16T03:54:55;14.40;99.90
54409;DHT22;40315;48.620;9.828;2022-10-16T03:57:24;13.60;99.90
54409;DHT22;40315;48.620;9.828;2022-10-16T03:59:51;13.80;99.90
54409;DHT22;40315;48.620;9.828;2022-10-16T04:02:20;13.70;99.90
54409;DHT22;40315;48.620;9.828;2022-10-16T04:04:47;13.70;99.90
54409;DHT22;40315;48.620;9.828;2022-10-16T04:07:14;13.80;99.90
54409;DHT22;40315;48.620;9.828;2022-10-16T04:09:43;13.70;99.90
54409;DHT22;40315;48.620;9.828;2022-10-16T04:12:10;13.70;99.90
54409;DHT22;40315;48.620;9.828;2022-10-16T04:14:37;13.70;99.90
54409;DHT22;40315;48.620;9.828;2022-10-16T04:17:04;13.70;99.90
54409;DHT22;40315;48.620;9.828;2022-10-16T04:21:59;13.80;99.90
54409;DHT22;40315;48.620;9.828;2022-10-16T04:24:26;13.80;99.90
54409;DHT22;40315;48.620;9.828;2022-10-16T04:26:53;13.80;99.90
54409;DHT22;40315;48.620;9.828;2022-10-16T04:29:20;13.80;99.90
54409;DHT22;40315;48.620;9.828;2022-10-16T04:31:47;13.80;99.90
54409;DHT22;40315;48.620;9.828;2022-10-16T04:34:17;13.80;99.90
54409;DHT22;40315;48.620;9.828;2022-10-16T04:36:46;13.80;99.90
54409;DHT22;40315;48.620;9.828;2022-10-16T04:39:13;13.70;99.90
54409;DHT22;40315;48.620;9.828;2022-10-16T04:46:37;13.70;99.90
54409;DHT22;40315;48.620;9.828;2022-10-16T04:49:04;13.70;99.90
54409;DHT22;40315;48.620;9.828;2022-10-16T04:51:31;13.70;99.90
54409;DHT22;40315;48.620;9.828;2022-10-16T04:56:27;13.70;99.90
54409;DHT22;40315;48.620;9.828;2022-10-16T04:58:54;13.60;99.90
54409;DHT22;40315;48.620;9.828;2022-10-16T05:01:21;13.50;99.90
54409;DHT22;40315;48.620;9.828;2022-10-16T05:03:48;13.50;99.90
54409;DHT22;40315;48.620;9.828;2022-10-16T05:06:17;13.70;99.90
54409;DHT22;40315;48.620;9.828;2022-10-16T05:08:44;13.50;99.90
54409;DHT22;40315;48.620;9.828;2022-10-16T05:11:12;13.60;99.90
54409;DHT22;40315;48.620;9.828;2022-10-16T05:13:39;13.70;99.90
54409;DHT22;40315;48.620;9.828;2022-10-16T05:16:09;13.80;99.90
54409;DHT22;40315;48.620;9.828;2022-10-16T05:18:36;13.80;99.90
54409;DHT22;40315;48.620;9.828;2022-10-16T05:21:05;13.80;99.90
54409;DHT22;40315;48.620;9.828;2022-10-16T05:23:33;13.80;99.90
54409;DHT22;40315;48.620;9.828;2022-10-16T05:26:02;13.70;99.90
54409;DHT22;40315;48.620;9.828;2022-10-16T05:28:31;13.70;99.90
54409;DHT22;40315;48.620;9.828;2022-10-16T05:30:58;13.70;99.90
54409;DHT22;40315;48.620;9.828;2022-10-16T05:33:26;13.70;99.90
54409;DHT22;40315;48.620;9.828;2022-10-16T05:35:53;13.70;99.90
54409;DHT22;40315;48.620;9.828;2022-10-16T05:38:20;13.70;99.90
54409;DHT22;40315;48.620;9.828;2022-10-16T05:40:51;13.70;99.90
54409;DHT22;40315;48.620;9.828;2022-10-16T05:43:18;13.70;99.90
54409;DHT22;40315;48.620;9.828;2022-10-16T05:48:22;13.70;99.90
54409;DHT22;40315;48.620;9.828;2022-10-16T05:50:56;13.60;99.90
54409;DHT22;40315;48.620;9.828;2022-10-16T05:53:24;13.70;99.90
54409;DHT22;40315;48.620;9.828;2022-10-16T05:55:52;13.70;99.90
54409;DHT22;40315;48.620;9.828;2022-10-16T05:58:28;13.70;99.90
54409;DHT22;40315;48.620;9.828;2022-10-16T06:00:59;13.70;99.90
54409;DHT22;40315;48.620;9.828;2022-10-16T06:03:26;13.70;99.90
54409;DHT22;40315;48.620;9.828;2022-10-16T06:05:53;13.70;99.90
54409;DHT22;40315;48.620;9.828;2022-10-16T06:08:22;13.80;99.90
54409;DHT22;40315;48.620;9.828;2022-10-16T06:10:59;13.80;99.90
54409;DHT22;40315;48.620;9.828;2022-10-16T06:13:27;13.80;99.90
54409;DHT22;40315;48.620;9.828;2022-10-16T06:15:58;13.80;99.90
54409;DHT22;40315;48.620;9.828;2022-10-16T06:18:25;13.90;99.90
54409;DHT22;40315;48.620;9.828;2022-10-16T06:20:53;13.90;99.90
54409;DHT22;40315;48.620;9.828;2022-10-16T06:23:20;13.90;99.90
54409;DHT22;40315;48.620;9.828;2022-10-16T06:25:47;13.90;99.90
54409;DHT22;40315;48.620;9.828;2022-10-16T06:28:16;14.00;99.90
54409;DHT22;40315;48.620;9.828;2022-10-16T06:30:43;13.90;99.90
54409;DHT22;40315;48.620;9.828;2022-10-16T06:33:12;14.00;99.90
54409;DHT22;40315;48.620;9.828;2022-10-16T06:35:39;14.00;99.90
54409;DHT22;40315;48.620;9.828;2022-10-16T06:38:06;14.00;99.90
54409;DHT22;40315;48.620;9.828;2022-10-16T06:40:33;14.10;99.90
54409;DHT22;40315;48.620;9.828;2022-10-16T06:43:00;14.20;99.90
54409;DHT22;40315;48.620;9.828;2022-10-16T06:45:27;14.20;99.90
54409;DHT22;40315;48.620;9.828;2022-10-16T06:47:54;14.20;99.90
54409;DHT22;40315;48.620;9.828;2022-10-16T06:50:24;14.20;99.90
54409;DHT22;40315;48.620;9.828;2022-10-16T06:52:51;14.20;99.90
54409;DHT22;40315;48.620;9.828;2022-10-16T06:55:18;14.20;99.90
54409;DHT22;40315;48.620;9.828;2022-10-16T06:57:47;14.30;99.90
54409;DHT22;40315;48.620;9.828;2022-10-16T07:00:14;14.30;99.90
54409;DHT22;40315;48.620;9.828;2022-10-16T07:02:41;14.30;99.90
54409;DHT22;40315;48.620;9.828;2022-10-16T07:05:11;14.40;99.90
54409;DHT22;40315;48.620;9.828;2022-10-16T07:07:39;14.50;99.90
54409;DHT22;40315;48.620;9.828;2022-10-16T07:10:06;14.60;99.90
54409;DHT22;40315;48.620;9.828;2022-10-16T07:12:34;14.70;99.90
54409;DHT22;40315;48.620;9.828;2022-10-16T07:15:01;14.80;99.90
54409;DHT22;40315;48.620;9.828;2022-10-16T07:17:28;14.80;99.90
54409;DHT22;40315;48.620;9.828;2022-10-16T07:19:55;14.90;99.90
54409;DHT22;40315;48.620;9.828;2022-10-16T07:22:22;15.00;99.90
54409;DHT22;40315;48.620;9.828;2022-10-16T07:24:52;15.00;99.90
54409;DHT22;40315;48.620;9.828;2022-10-16T07:27:22;15.20;99.90
54409;DHT22;40315;48.620;9.828;2022-10-16T07:29:49;15.30;99.90
54409;DHT22;40315;48.620;9.828;2022-10-16T07:32:16;15.30;99.90
54409;DHT22;40315;48.620;9.828;2022-10-16T07:34:43;15.30;99.90
54409;DHT22;40315;48.620;9.828;2022-10-16T07:37:11;15.20;99.90
54409;DHT22;40315;48.620;9.828;2022-10-16T07:44:34;15.30;99.90
54409;DHT22;40315;48.620;9.828;2022-10-16T07:47:01;15.30;99.90
54409;DHT22;40315;48.620;9.828;2022-10-16T07:49:28;15.40;99.90
54409;DHT22;40315;48.620;9.828;2022-10-16T07:51:55;15.50;99.90
54409;DHT22;40315;48.620;9.828;2022-10-16T07:54:23;15.40;99.90
54409;DHT22;40315;48.620;9.828;2022-10-16T07:56:52;15.40;99.90
54409;DHT22;40315;48.620;9.828;2022-10-16T07:59:20;15.50;99.90
54409;DHT22;40315;48.620;9.828;2022-10-16T08:01:49;15.60;99.90
54409;DHT22;40315;48.620;9.828;2022-10-16T08:04:16;15.70;99.90
54409;DHT22;40315;48.620;9.828;2022-10-16T08:06:43;15.60;99.90
54409;DHT22;40315;48.620;9.828;2022-10-16T08:09:10;15.80;99.90
54409;DHT22;40315;48.620;9.828;2022-10-16T08:11:37;15.90;99.90
54409;DHT22;40315;48.620;9.828;2022-10-16T08:14:04;16.00;99.90
54409;DHT22;40315;48.620;9.828;2022-10-16T08:16:35;16.10;99.90
54409;DHT22;40315;48.620;9.828;2022-10-16T08:19:02;16.30;99.90
54409;DHT22;40315;48.620;9.828;2022-10-16T08:21:31;16.30;99.90
54409;DHT22;40315;48.620;9.828;2022-10-16T08:23:58;16.40;99.90
54409;DHT22;40315;48.620;9.828;2022-10-16T08:26:28;16.60;99.90
54409;DHT22;40315;48.620;9.828;2022-10-16T08:28:56;16.60;99.90
54409;DHT22;40315;48.620;9.828;2022-10-16T08:31:23;16.60;99.90
54409;DHT22;40315;48.620;9.828;2022-10-16T08:33:53;16.70;99.90
54409;DHT22;40315;48.620;9.828;2022-10-16T08:38:48;16.90;99.90
54409;DHT22;40315;48.620;9.828;2022-10-16T08:41:53;16.80;99.90
54409;DHT22;40315;48.620;9.828;2022-10-16T08:44:31;16.90;99.90
54409;DHT22;40315;48.620;9.828;2022-10-16T08:47:08;16.90;99.90
54409;DHT22;40315;48.620;9.828;2022-10-16T08:49:42;16.90;99.90
54409;DHT22;40315;48.620;9.828;2022-10-16T08:52:12;17.00;99.90
54409;DHT22;40315;48.620;9.828;2022-10-16T08:54:43;17.00;99.90
54409;DHT22;40315;48.620;9.828;2022-10-16T08:57:16;17.10;99.90
54409;DHT22;40315;48.620;9.828;2022-10-16T08:59:43;17.20;99.90
54409;DHT22;40315;48.620;9.828;2022-10-16T09:02:23;17.20;99.90
54409;DHT22;40315;48.620;9.828;2022-10-16T09:05:11;17.30;99.90
54409;DHT22;40315;48.620;9.828;2022-10-16T09:07:48;17.40;99.90
54409;DHT22;40315;48.620;9.828;2022-10-16T09:10:28;17.50;99.90
54409;DHT22;40315;48.620;9.828;2022-10-16T09:13:07;17.50;99.90
54409;DHT22;40315;48.620;9.828;2022-10-16T09:15:40;17.60;99.90
54409;DHT22;40315;48.620;9.828;2022-10-16T09:18:17;17.60;99.90
54409;DHT22;40315;48.620;9.828;2022-10-16T09:20:51;17.70;99.90
54409;DHT22;40315;48.620;9.828;2022-10-16T09:23:23;17.80;99.90
54409;DHT22;40315;48.620;9.828;2022-10-16T09:25:54;17.80;99.90
54409;DHT22;40315;48.620;9.828;2022-10-16T09:30:49;17.80;99.90
54409;DHT22;40315;48.620;9.828;2022-10-16T09:33:21;17.90;99.90
54409;DHT22;40315;48.620;9.828;2022-10-16T09:35:53;20.30;99.90
54409;DHT22;40315;48.620;9.828;2022-10-16T09:38:26;17.90;99.90
54409;DHT22;40315;48.620;9.828;2022-10-16T09:40:54;17.90;99.90
54409;DHT22;40315;48.620;9.828;2022-10-16T09:43:24;18.10;99.90
54409;DHT22;40315;48.620;9.828;2022-10-16T09:45:57;18.20;99.90
54409;DHT22;40315;48.620;9.828;2022-10-16T09:48:28;18.40;99.90
54409;DHT22;40315;48.620;9.828;2022-10-16T09:51:03;18.80;99.90
54409;DHT22;40315;48.620;9.828;2022-10-16T09:53:41;18.80;99.90
54409;DHT22;40315;48.620;9.828;2022-10-16T09:56:10;18.90;99.90
54409;DHT22;40315;48.620;9.828;2022-10-16T09:58:49;18.90;99.90
54409;DHT22;40315;48.620;9.828;2022-10-16T10:01:17;19.00;99.90
54409;DHT22;40315;48.620;9.828;2022-10-16T10:03:45;19.00;99.90
54409;DHT22;40315;48.620;9.828;2022-10-16T10:06:21;19.00;99.90
54409;DHT22;40315;48.620;9.828;2022-10-16T10:11:36;19.20;99.90
54409;DHT22;40315;48.620;9.828;2022-10-16T10:14:13;19.10;99.90
54409;DHT22;40315;48.620;9.828;2022-10-16T10:16:42;22.00;99.90
54409;DHT22;40315;48.620;9.828;2022-10-16T10:19:14;19.30;99.90
54409;DHT22;40315;48.620;9.828;2022-10-16T10:24:12;19.30;99.90
54409;DHT22;40315;48.620;9.828;2022-10-16T10:26:45;19.30;99.90
54409;DHT22;40315;48.620;9.828;2022-10-16T10:29:20;19.30;99.90
54409;DHT22;40315;48.620;9.828;2022-10-16T10:32:00;20.40;99.90
54409;DHT22;40315;48.620;9.828;2022-10-16T10:34:47;19.20;99.90
54409;DHT22;40315;48.620;9.828;2022-10-16T10:37:31;19.20;99.90
54409;DHT22;40315;48.620;9.828;2022-10-16T10:40:13;19.20;99.90
54409;DHT22;40315;48.620;9.828;2022-10-16T10:42:49;19.20;99.90
54409;DHT22;40315;48.620;9.828;2022-10-16T10:45:27;19.30;99.90
54409;DHT22;40315;48.620;9.828;2022-10-16T10:48:22;19.40;99.90
54409;DHT22;40315;48.620;9.828;2022-10-16T10:50:54;19.40;99.90
54409;DHT22;40315;48.620;9.828;2022-10-16T10:53:35;19.50;99.90
54409;DHT22;40315;48.620;9.828;2022-10-16T10:56:17;19.50;99.90
54409;DHT22;40315;48.620;9.828;2022-10-16T10:59:07;19.50;99.90
54409;DHT22;40315;48.620;9.828;2022-10-16T11:01:44;19.50;99.90
54409;DHT22;40315;48.620;9.828;2022-10-16T11:04:43;19.50;99.90
54409;DHT22;40315;48.620;9.828;2022-10-16T11:07:19;19.50;99.90
54409;DHT22;40315;48.620;9.828;2022-10-16T11:09:53;19.70;99.90
54409;DHT22;40315;48.620;9.828;2022-10-16T11:12:23;19.80;99.90
54409;DHT22;40315;48.620;9.828;2022-10-16T11:14:57;19.80;99.90
54409;DHT22;40315;48.620;9.828;2022-10-16T11:17:28;19.80;99.90
54409;DHT22;40315;48.620;9.828;2022-10-16T11:20:02;20.00;99.90
54409;DHT22;40315;48.620;9.828;2022-10-16T11:22:36;20.30;99.90
54409;DHT22;40315;48.620;9.828;2022-10-16T11:25:14;20.70;99.90
54409;DHT22;40315;48.620;9.828;2022-10-16T11:27:45;20.90;99.90
54409;DHT22;40315;48.620;9.828;2022-10-16T11:30:16;21.10;99.90
54409;DHT22;40315;48.620;9.828;2022-10-16T11:32:53;21.20;99.90
54409;DHT22;40315;48.620;9.828;2022-10-16T11:35:25;21.50;99.90
54409;DHT22;40315;48.620;9.828;2022-10-16T11:37:56;21.60;99.90
54409;DHT22;40315;48.620;9.828;2022-10-16T11:40:28;21.80;99.90
54409;DHT22;40315;48.620;9.828;2022-10-16T11:43:01;22.00;99.90
54409;DHT22;40315;48.620;9.828;2022-10-16T11:45:34;22.30;99.90
54409;DHT22;40315;48.620;9.828;2022-10-16T11:48:12;22.60;99.90
54409;DHT22;40315;48.620;9.828;2022-10-16T11:50:45;22.80;99.90
54409;DHT22;40315;48.620;9.828;2022-10-16T11:53:21;22.80;99.90
54409;DHT22;40315;48.620;9.828;2022-10-16T11:55:52;22.90;99.90
54409;DHT22;40315;48.620;9.828;2022-10-16T11:58:25;22.80;99.90
54409;DHT22;40315;48.620;9.828;2022-10-16T12:00:59;22.50;99.90
54409;DHT22;40315;48.620;9.828;2022-10-16T12:03:34;22.70;99.90
54409;DHT22;40315;48.620;9.828;2022-10-16T12:06:13;23.00;99.90
54409;DHT22;40315;48.620;9.828;2022-10-16T12:08:44;22.80;99.90
54409;DHT22;40315;48.620;9.828;2022-10-16T12:11:31;22.90;99.90
54409;DHT22;40315;48.620;9.828;2022-10-16T12:14:07;22.90;99.90
54409;DHT22;40315;48.620;9.828;2022-10-16T12:16:52;23.00;99.90
54409;DHT22;40315;48.620;9.828;2022-10-16T12:19:21;23.20;99.90
54409;DHT22;40315;48.620;9.828;2022-10-16T12:21:50;23.50;99.90
54409;DHT22;40315;48.620;9.828;2022-10-16T12:24:34;23.70;99.90
54409;DHT22;40315;48.620;9.828;2022-10-16T12:27:04;24.00;99.90
54409;DHT22;40315;48.620;9.828;2022-10-16T12:29:36;24.00;99.90
54409;DHT22;40315;48.620;9.828;2022-10-16T12:32:23;23.80;99.90
54409;DHT22;40315;48.620;9.828;2022-10-16T12:34:54;23.60;99.90
54409;DHT22;40315;48.620;9.828;2022-10-16T12:37:23;23.50;99.90
54409;DHT22;40315;48.620;9.828;2022-10-16T12:39:52;23.50;99.90
54409;DHT22;40315;48.620;9.828;2022-10-16T12:42:23;23.50;99.90
54409;DHT22;40315;48.620;9.828;2022-10-16T12:45:00;23.80;99.90
54409;DHT22;40315;48.620;9.828;2022-10-16T12:47:47;23.80;99.90
54409;DHT22;40315;48.620;9.828;2022-10-16T12:50:33;24.00;99.90
54409;DHT22;40315;48.620;9.828;2022-10-16T12:53:02;24.10;99.90
54409;DHT22;40315;48.620;9.828;2022-10-16T12:55:35;24.40;99.90
54409;DHT22;40315;48.620;9.828;2022-10-16T12:58:22;24.30;99.90
54409;DHT22;40315;48.620;9.828;2022-10-16T13:00:57;24.50;99.90
54409;DHT22;40315;48.620;9.828;2022-10-16T13:03:44;24.60;99.90
54409;DHT22;40315;48.620;9.828;2022-10-16T13:06:23;24.70;99.90
54409;DHT22;40315;48.620;9.828;2022-10-16T13:09:07;24.50;99.90
54409;DHT22;40315;48.620;9.828;2022-10-16T13:11:55;24.70;99.90
54409;DHT22;40315;48.620;9.828;2022-10-16T13:14:49;24.70;99.90
54409;DHT22;40315;48.620;9.828;2022-10-16T13:17:26;24.50;99.90
54409;DHT22;40315;48.620;9.828;2022-10-16T13:20:02;24.30;99.90
54409;DHT22;40315;48.620;9.828;2022-10-16T13:22:40;24.10;99.90
54409;DHT22;40315;48.620;9.828;2022-10-16T13:25:19;24.00;99.90
54409;DHT22;40315;48.620;9.828;2022-10-16T13:27:54;24.20;99.90
54409;DHT22;40315;48.620;9.828;2022-10-16T13:30:25;24.10;99.90
54409;DHT22;40315;48.620;9.828;2022-10-16T13:32:59;24.40;99.90
54409;DHT22;40315;48.620;9.828;2022-10-16T13:35:28;24.20;99.90
54409;DHT22;40315;48.620;9.828;2022-10-16T13:38:11;24.30;99.90
54409;DHT22;40315;48.620;9.828;2022-10-16T13:40:52;24.50;99.90
54409;DHT22;40315;48.620;9.828;2022-10-16T13:43:22;24.50;99.90
54409;DHT22;40315;48.620;9.828;2022-10-16T13:45:55;24.60;99.90
54409;DHT22;40315;48.620;9.828;2022-10-16T13:48:23;24.70;99.90
54409;DHT22;40315;48.620;9.828;2022-10-16T13:51:05;24.80;99.90
54409;DHT22;40315;48.620;9.828;2022-10-16T13:53:35;24.90;99.90
54409;DHT22;40315;48.620;9.828;2022-10-16T13:56:04;24.70;99.90
54409;DHT22;40315;48.620;9.828;2022-10-16T13:58:32;24.80;99.90
54409;DHT22;40315;48.620;9.828;2022-10-16T14:01:02;24.80;99.90
54409;DHT22;40315;48.620;9.828;2022-10-16T14:03:31;24.80;99.90
54409;DHT22;40315;48.620;9.828;2022-10-16T14:06:00;24.70;99.90
54409;DHT22;40315;48.620;9.828;2022-10-16T14:08:31;24.80;99.90
54409;DHT22;40315;48.620;9.828;2022-10-16T14:10:59;24.90;99.90
54409;DHT22;40315;48.620;9.828;2022-10-16T14:13:32;25.00;99.90
54409;DHT22;40315;48.620;9.828;2022-10-16T14:16:07;25.10;99.90
54409;DHT22;40315;48.620;9.828;2022-10-16T14:18:37;24.90;99.90
54409;DHT22;40315;48.620;9.828;2022-10-16T14:21:06;25.00;99.90
54409;DHT22;40315;48.620;9.828;2022-10-16T14:23:36;24.90;99.90
54409;DHT22;40315;48.620;9.828;2022-10-16T14:26:22;24.60;99.90
54409;DHT22;40315;48.620;9.828;2022-10-16T14:29:02;24.60;99.90
54409;DHT22;40315;48.620;9.828;2022-10-16T14:31:33;24.30;99.90
54409;DHT22;40315;48.620;9.828;2022-10-16T14:34:02;24.00;99.90
54409;DHT22;40315;48.620;9.828;2022-10-16T14:36:30;24.00;99.90
54409;DHT22;40315;48.620;9.828;2022-10-16T14:39:00;23.90;99.90
54409;DHT22;40315;48.620;9.828;2022-10-16T14:41:29;23.90;99.90
54409;DHT22;40315;48.620;9.828;2022-10-16T14:44:02;23.80;99.90
54409;DHT22;40315;48.620;9.828;2022-10-16T14:46:34;23.70;99.90
54409;DHT22;40315;48.620;9.828;2022-10-16T14:49:05;23.60;99.90
54409;DHT22;40315;48.620;9.828;2022-10-16T14:51:41;23.50;99.90
54409;DHT22;40315;48.620;9.828;2022-10-16T14:54:11;23.30;99.90
54409;DHT22;40315;48.620;9.828;2022-10-16T14:56:45;23.10;99.90
54409;DHT22;40315;48.620;9.828;2022-10-16T14:59:17;22.90;99.90
54409;DHT22;40315;48.620;9.828;2022-10-16T15:01:46;22.80;99.90
54409;DHT22;40315;48.620;9.828;2022-10-16T15:04:14;22.70;99.90
54409;DHT22;40315;48.620;9.828;2022-10-16T15:06:42;22.60;99.90
54409;DHT22;40315;48.620;9.828;2022-10-16T15:09:09;22.50;99.90
54409;DHT22;40315;48.620;9.828;2022-10-16T15:11:36;22.00;99.90
54409;DHT22;40315;48.620;9.828;2022-10-16T15:14:04;22.20;99.90
54409;DHT22;40315;48.620;9.828;2022-10-16T15:16:33;22.00;99.90
54409;DHT22;40315;48.620;9.828;2022-10-16T15:19:01;21.90;99.90
54409;DHT22;40315;48.620;9.828;2022-10-16T15:21:30;21.90;99.90
54409;DHT22;40315;48.620;9.828;2022-10-16T15:23:58;21.80;99.90
54409;DHT22;40315;48.620;9.828;2022-10-16T15:26:27;21.70;99.90
54409;DHT22;40315;48.620;9.828;2022-10-16T15:28:55;21.60;99.90
54409;DHT22;40315;48.620;9.828;2022-10-16T15:33:54;21.40;99.90
54409;DHT22;40315;48.620;9.828;2022-10-16T15:36:32;21.40;99.90
54409;DHT22;40315;48.620;9.828;2022-10-16T15:39:02;21.40;99.90
54409;DHT22;40315;48.620;9.828;2022-10-16T15:41:29;21.40;99.90
54409;DHT22;40315;48.620;9.828;2022-10-16T15:43:57;21.40;99.90
54409;DHT22;40315;48.620;9.828;2022-10-16T15:46:24;21.30;99.90
54409;DHT22;40315;48.620;9.828;2022-10-16T15:48:56;21.10;99.90
54409;DHT22;40315;48.620;9.828;2022-10-16T15:51:23;21.00;99.90
54409;DHT22;40315;48.620;9.828;2022-10-16T15:53:52;21.00;99.90
54409;DHT22;40315;48.620;9.828;2022-10-16T15:56:19;20.90;99.90
54409;DHT22;40315;48.620;9.828;2022-10-16T15:58:50;20.80;99.90
54409;DHT22;40315;48.620;9.828;2022-10-16T16:01:17;20.70;99.90
54409;DHT22;40315;48.620;9.828;2022-10-16T16:03:46;20.60;99.90
54409;DHT22;40315;48.620;9.828;2022-10-16T16:06:14;20.40;99.90
54409;DHT22;40315;48.620;9.828;2022-10-16T16:08:41;20.30;99.90
54409;DHT22;40315;48.620;9.828;2022-10-16T16:11:12;20.00;99.90
54409;DHT22;40315;48.620;9.828;2022-10-16T16:13:40;20.00;99.90
54409;DHT22;40315;48.620;9.828;2022-10-16T16:16:08;19.90;99.90
54409;DHT22;40315;48.620;9.828;2022-10-16T16:18:35;19.90;99.90
54409;DHT22;40315;48.620;9.828;2022-10-16T16:21:03;19.80;99.90
54409;DHT22;40315;48.620;9.828;2022-10-16T16:26:11;19.70;99.90
54409;DHT22;40315;48.620;9.828;2022-10-16T16:28:39;19.40;99.90
54409;DHT22;40315;48.620;9.828;2022-10-16T16:31:08;19.30;99.90
54409;DHT22;40315;48.620;9.828;2022-10-16T16:33:38;19.20;99.90
54409;DHT22;40315;48.620;9.828;2022-10-16T16:38:35;19.10;99.90
54409;DHT22;40315;48.620;9.828;2022-10-16T16:41:12;19.10;99.90
54409;DHT22;40315;48.620;9.828;2022-10-16T16:43:40;18.90;99.90